Andrew, Illinois
Current Conditions -  °F | °C
As of 9:52 AM on Monday 24 Nov 2014 (Local Time) from KSPI Reporting Station
Overcast Overcast  
Wind Chill: 24°   Ceiling: 1700
Heat Index: 35°   Visibility: 10mi
Dew Point: 33°   Wind: 20mph
Humidity: 92%   Direction: 270°W
Pressure: 29.55"   Gusts: 39mph
Location:  39.854°N, 89.6295°W
Report Text: KSPI 241552Z 27017G34KT 10SM BKN017 OVC025 02/01 A2955 RMK AO2 PK WND 27034/1544 PRESRR SLP008 T00170006
Loading
Personal Weather Stations






























Interactive Weather Map New forecast layout! Learn more

10-Day Weather Forecast

Advertisements
Track Severe Weather on mobile